createdAt,value
2019-03-22T00:02:05.419Z,-0.40
2019-03-22T00:04:36.118Z,-0.40
2019-03-22T00:07:06.547Z,-0.40
2019-03-22T00:09:36.952Z,-0.40
2019-03-22T00:12:07.473Z,-0.50
2019-03-22T00:14:38.028Z,-0.40
2019-03-22T00:17:08.590Z,-0.50
2019-03-22T00:19:39.520Z,-0.50
2019-03-22T00:22:09.968Z,-0.50
2019-03-22T00:24:40.395Z,-0.70
2019-03-22T00:27:16.294Z,-0.80
2019-03-22T00:29:43.057Z,-0.80
2019-03-22T00:32:13.700Z,-0.90
2019-03-22T00:34:44.608Z,-0.90
2019-03-22T00:37:15.043Z,-0.90
2019-03-22T00:39:45.556Z,-0.90
2019-03-22T00:42:16.166Z,-0.90
2019-03-22T00:44:46.692Z,-1.10
2019-03-22T00:47:17.481Z,-1.10
2019-03-22T00:49:48.456Z,-1.20
2019-03-22T00:52:18.839Z,-1.30
2019-03-22T00:54:49.301Z,-1.40
2019-03-22T00:57:28.114Z,-1.30
2019-03-22T00:59:51.955Z,-1.30
2019-03-22T01:02:22.508Z,-1.30
2019-03-22T01:04:53.360Z,-1.30
2019-03-22T01:07:23.791Z,-1.30
2019-03-22T01:09:54.260Z,-1.40
2019-03-22T01:12:24.757Z,-1.50
2019-03-22T01:14:55.179Z,-1.60
2019-03-22T01:17:25.651Z,-1.70
2019-03-22T01:19:56.423Z,-1.60
2019-03-22T01:22:26.885Z,-1.60
2019-03-22T01:24:57.330Z,-1.60
2019-03-22T01:27:27.817Z,-1.70
2019-03-22T01:29:58.326Z,-1.70
2019-03-22T01:32:28.885Z,-1.80
2019-03-22T01:34:59.641Z,-1.60
2019-03-22T01:37:30.043Z,-1.70
2019-03-22T01:40:00.516Z,-1.70
2019-03-22T01:42:30.977Z,-1.80
2019-03-22T01:45:01.437Z,-1.90
2019-03-22T01:47:31.877Z,-2.00
2019-03-22T01:50:02.696Z,-2.00
2019-03-22T01:52:33.180Z,-1.90
2019-03-22T01:55:03.703Z,-1.90
2019-03-22T01:57:34.163Z,-1.90
2019-03-22T02:00:05.167Z,-2.00
2019-03-22T02:02:36.602Z,-2.00
2019-03-22T02:05:07.407Z,-2.10
2019-03-22T02:07:37.831Z,-2.10
2019-03-22T02:10:09.323Z,-2.20
2019-03-22T02:12:39.898Z,-2.20
2019-03-22T02:15:13.324Z,-2.30
2019-03-22T02:17:44.106Z,-2.30
2019-03-22T02:20:15.839Z,-2.20
2019-03-22T02:22:47.051Z,-2.20
2019-03-22T02:25:17.603Z,-2.30
2019-03-22T02:27:48.177Z,-2.30
2019-03-22T02:30:19.000Z,-2.30
2019-03-22T02:32:49.792Z,-2.40
2019-03-22T02:35:28.856Z,-2.40
2019-03-22T02:37:52.850Z,-2.40
2019-03-22T02:40:23.253Z,-2.40
2019-03-22T02:42:53.715Z,-2.40
2019-03-22T02:45:24.232Z,-2.40
2019-03-22T02:47:54.679Z,-2.50
2019-03-22T02:50:25.430Z,-2.50
2019-03-22T02:52:55.889Z,-2.50
2019-03-22T02:55:26.342Z,-2.50
2019-03-22T02:57:56.794Z,-2.50
2019-03-22T03:00:27.549Z,-2.50
2019-03-22T03:02:58.166Z,-2.30
2019-03-22T03:05:28.994Z,-2.00
2019-03-22T03:07:59.498Z,-1.80
2019-03-22T03:10:29.978Z,-1.80
2019-03-22T03:13:00.438Z,-1.70
2019-03-22T03:15:30.901Z,-1.80
2019-03-22T03:18:01.399Z,-2.00
2019-03-22T03:20:32.270Z,-2.10
2019-03-22T03:23:02.812Z,-2.10
2019-03-22T03:25:33.359Z,-2.20
2019-03-22T03:28:03.819Z,-2.20
2019-03-22T03:30:34.284Z,-2.20
2019-03-22T03:33:05.284Z,-2.30
2019-03-22T03:35:36.060Z,-2.40
2019-03-22T03:38:06.649Z,-2.50
2019-03-22T03:40:37.630Z,-2.60
2019-03-22T03:43:08.063Z,-2.60
2019-03-22T03:45:38.652Z,-2.60
2019-03-22T03:48:09.585Z,-2.60
2019-03-22T03:50:40.484Z,-2.60
2019-03-22T03:53:11.009Z,-2.50
2019-03-22T03:55:41.460Z,-2.50
2019-03-22T03:58:11.864Z,-2.60
2019-03-22T04:00:42.358Z,-2.70
2019-03-22T04:03:12.844Z,-2.70
2019-03-22T04:05:43.666Z,-2.80
2019-03-22T04:08:14.132Z,-2.90
2019-03-22T04:10:44.605Z,-2.90
2019-03-22T04:13:15.076Z,-2.90
2019-03-22T04:15:45.627Z,-2.80
2019-03-22T04:18:16.080Z,-2.70
2019-03-22T04:20:46.787Z,-2.70
2019-03-22T04:23:17.282Z,-2.80
2019-03-22T04:25:47.753Z,-2.80
2019-03-22T04:28:19.471Z,-2.80
2019-03-22T04:30:50.030Z,-2.90
2019-03-22T04:33:20.862Z,-3.00
2019-03-22T04:35:51.660Z,-3.00
2019-03-22T04:38:22.162Z,-3.00
2019-03-22T04:40:52.625Z,-3.00
2019-03-22T04:43:23.078Z,-3.00
2019-03-22T04:45:55.452Z,-3.00
2019-03-22T04:48:31.143Z,-3.00
2019-03-22T04:51:04.243Z,-3.00
2019-03-22T04:53:50.756Z,-2.90
2019-03-22T04:56:23.137Z,-2.90
2019-03-22T04:58:55.908Z,-3.00
2019-03-22T05:01:27.286Z,-3.00
2019-03-22T05:03:59.224Z,-3.00
2019-03-22T05:06:31.611Z,-3.10
2019-03-22T05:09:04.242Z,-3.10
2019-03-22T05:11:35.210Z,-3.00
2019-03-22T05:14:07.190Z,-2.90
2019-03-22T05:16:39.741Z,-2.90
2019-03-22T05:19:12.275Z,-2.90
2019-03-22T05:21:45.293Z,-2.80
2019-03-22T05:24:18.401Z,-2.90
2019-03-22T05:26:50.721Z,-2.80
2019-03-22T05:29:30.666Z,-2.80
2019-03-22T05:32:04.568Z,-2.60
2019-03-22T05:34:35.340Z,-2.70
2019-03-22T05:37:06.414Z,-2.80
2019-03-22T05:39:36.921Z,-2.80
2019-03-22T05:42:07.461Z,-2.70
2019-03-22T05:44:37.934Z,-2.80
2019-03-22T05:47:08.403Z,-2.80
2019-03-22T05:49:38.838Z,-2.70
2019-03-22T05:52:09.409Z,-2.70
2019-03-22T05:54:39.908Z,-2.60
2019-03-22T05:57:13.645Z,-2.50
2019-03-22T05:59:43.172Z,-2.50
2019-03-22T06:02:13.878Z,-2.40
2019-03-22T06:04:44.376Z,-2.30
2019-03-22T06:07:15.248Z,-2.20
2019-03-22T06:09:45.678Z,-2.20
2019-03-22T06:12:16.144Z,-2.10
2019-03-22T06:14:46.667Z,-2.10
2019-03-22T06:17:17.366Z,-2.20
2019-03-22T06:19:47.818Z,-2.10
2019-03-22T06:22:18.760Z,-2.00
2019-03-22T06:24:49.200Z,-2.10
2019-03-22T06:27:19.761Z,-2.00
2019-03-22T06:29:54.536Z,-1.90
2019-03-22T06:32:22.650Z,-1.80
2019-03-22T06:34:53.474Z,-1.70
2019-03-22T06:37:24.253Z,-1.50
2019-03-22T06:39:54.734Z,-1.40
2019-03-22T06:42:25.204Z,-1.30
2019-03-22T06:44:55.627Z,-1.10
2019-03-22T06:47:26.168Z,-1.00
2019-03-22T06:49:56.680Z,-1.20
2019-03-22T06:52:27.564Z,-1.10
2019-03-22T06:54:57.960Z,-0.80
2019-03-22T06:57:28.436Z,-0.80
2019-03-22T07:00:06.320Z,-0.60
2019-03-22T07:02:30.961Z,-0.40
2019-03-22T07:05:01.540Z,-0.20
2019-03-22T07:07:32.259Z,-0.10
2019-03-22T07:10:02.837Z,0.00
2019-03-22T07:12:33.290Z,0.10
2019-03-22T07:15:03.929Z,0.30
2019-03-22T07:17:34.323Z,0.40
2019-03-22T07:20:05.475Z,0.50
2019-03-22T07:22:36.365Z,0.50
2019-03-22T07:25:08.248Z,0.50
2019-03-22T07:27:38.751Z,0.60
2019-03-22T07:30:18.723Z,0.60
2019-03-22T07:32:41.727Z,0.70
2019-03-22T07:35:12.760Z,0.90
2019-03-22T07:37:43.537Z,1.30
2019-03-22T07:40:14.582Z,1.50
2019-03-22T07:42:45.119Z,1.60
2019-03-22T07:45:15.862Z,1.60
2019-03-22T07:47:46.301Z,1.70
2019-03-22T07:50:16.829Z,1.70
2019-03-22T07:52:47.618Z,1.40
2019-03-22T07:55:18.092Z,1.30
2019-03-22T07:57:48.547Z,1.30
2019-03-22T08:00:30.257Z,1.60
2019-03-22T08:02:51.816Z,1.80
2019-03-22T08:05:22.413Z,1.80
2019-03-22T08:07:55.931Z,1.90
2019-03-22T08:10:25.334Z,2.00
2019-03-22T08:12:55.819Z,2.20
2019-03-22T08:15:33.533Z,2.30
2019-03-22T08:18:04.315Z,2.30
2019-03-22T08:20:34.773Z,2.40
2019-03-22T08:23:13.080Z,2.60
2019-03-22T08:25:43.687Z,2.90
2019-03-22T08:28:14.459Z,3.30
2019-03-22T08:30:44.991Z,3.70
2019-03-22T08:33:15.458Z,4.00
2019-03-22T08:35:46.259Z,4.40
2019-03-22T08:38:17.636Z,4.70
2019-03-22T08:40:48.217Z,4.80
2019-03-22T08:43:18.675Z,4.60
2019-03-22T08:45:49.181Z,4.20
2019-03-22T08:48:19.833Z,3.80
2019-03-22T08:50:50.293Z,3.60
2019-03-22T08:53:21.083Z,3.70
2019-03-22T08:55:51.543Z,3.70
2019-03-22T08:58:21.982Z,4.10
2019-03-22T09:00:57.897Z,4.30
2019-03-22T09:03:24.577Z,4.20
2019-03-22T09:05:55.009Z,4.20
2019-03-22T09:08:25.862Z,4.40
2019-03-22T09:10:56.283Z,4.60
2019-03-22T09:13:26.759Z,4.60
2019-03-22T09:15:57.271Z,4.80
2019-03-22T09:18:27.674Z,5.00
2019-03-22T09:20:58.109Z,4.90
2019-03-22T09:23:29.143Z,4.90
2019-03-22T09:25:59.530Z,4.70
2019-03-22T09:28:30.053Z,5.10
2019-03-22T09:31:09.830Z,5.40
2019-03-22T09:33:32.633Z,5.40
2019-03-22T09:36:03.623Z,5.60
2019-03-22T09:38:34.460Z,5.10
2019-03-22T09:41:05.333Z,5.30
2019-03-22T09:43:35.839Z,5.60
2019-03-22T09:46:06.346Z,5.40
2019-03-22T09:48:36.823Z,5.50
2019-03-22T09:51:07.449Z,5.60
2019-03-22T09:53:38.305Z,5.50
2019-03-22T09:56:08.709Z,5.90
2019-03-22T09:58:39.212Z,5.90
2019-03-22T10:01:22.881Z,5.90
2019-03-22T10:03:42.727Z,5.90
2019-03-22T10:06:13.495Z,5.90
2019-03-22T10:08:44.407Z,6.10
2019-03-22T10:11:14.873Z,6.20
2019-03-22T10:13:48.143Z,6.90
2019-03-22T10:16:17.439Z,7.10
2019-03-22T10:18:47.948Z,7.50
2019-03-22T10:21:22.652Z,7.50
2019-03-22T10:23:50.763Z,7.60
2019-03-22T10:26:21.266Z,7.60
2019-03-22T10:28:51.685Z,7.60
2019-03-22T10:31:22.110Z,7.60
2019-03-22T10:33:52.593Z,7.60
2019-03-22T10:36:23.592Z,7.90
2019-03-22T10:38:54.458Z,8.00
2019-03-22T10:41:24.971Z,7.90
2019-03-22T10:43:55.458Z,8.50
2019-03-22T10:46:25.867Z,8.60
2019-03-22T10:48:56.394Z,8.70
2019-03-22T10:51:26.807Z,9.20
2019-03-22T10:53:57.656Z,8.80
2019-03-22T10:56:28.115Z,9.10
2019-03-22T10:58:58.513Z,9.00
2019-03-22T11:01:28.958Z,8.80
2019-03-22T11:03:59.542Z,8.80
2019-03-22T11:06:30.395Z,9.10
2019-03-22T11:09:01.340Z,9.00
2019-03-22T11:11:31.878Z,9.10
2019-03-22T11:14:02.314Z,9.20
2019-03-22T11:16:32.720Z,9.10
2019-03-22T11:19:03.226Z,9.00
2019-03-22T11:21:33.649Z,8.90
2019-03-22T11:24:05.217Z,9.00
2019-03-22T11:26:35.705Z,9.00
2019-03-22T11:29:06.319Z,9.10
2019-03-22T11:31:40.012Z,9.00
2019-03-22T11:34:08.878Z,9.20
2019-03-22T11:36:39.788Z,9.20
2019-03-22T11:39:15.740Z,9.10
2019-03-22T11:41:45.293Z,9.40
2019-03-22T11:44:15.761Z,9.30
2019-03-22T11:46:46.162Z,9.30
2019-03-22T11:49:16.604Z,9.20
2019-03-22T11:51:47.117Z,9.20
2019-03-22T11:54:18.008Z,9.50
2019-03-22T11:56:48.439Z,9.50
2019-03-22T11:59:18.998Z,9.50
2019-03-22T12:01:49.454Z,9.70
2019-03-22T12:04:20.005Z,9.70
2019-03-22T12:06:50.508Z,9.80
2019-03-22T12:09:22.960Z,9.80
2019-03-22T12:11:53.379Z,9.70
2019-03-22T12:14:23.881Z,9.70
2019-03-22T12:16:56.568Z,9.90
2019-03-22T12:19:26.520Z,9.80
2019-03-22T12:21:57.134Z,9.80
2019-03-22T12:24:27.882Z,9.70
2019-03-22T12:26:58.391Z,9.90
2019-03-22T12:29:28.894Z,10.40
2019-03-22T12:31:59.336Z,11.00
2019-03-22T12:34:29.761Z,11.70
2019-03-22T12:37:00.591Z,11.60
2019-03-22T12:39:31.387Z,11.50
2019-03-22T12:42:02.496Z,12.50
2019-03-22T12:44:33.014Z,12.60
2019-03-22T12:47:03.456Z,12.30
2019-03-22T12:49:33.917Z,13.00
2019-03-22T12:52:04.533Z,14.50
2019-03-22T12:54:35.366Z,15.00
2019-03-22T12:57:05.899Z,14.30
2019-03-22T12:59:36.560Z,14.20
2019-03-22T13:02:07.122Z,14.40
2019-03-22T13:04:37.554Z,14.70
2019-03-22T13:07:08.074Z,14.70
2019-03-22T13:09:38.857Z,16.10
2019-03-22T13:12:09.301Z,13.90
2019-03-22T13:14:39.808Z,12.70
2019-03-22T13:17:10.223Z,12.60
2019-03-22T13:19:40.670Z,11.60
2019-03-22T13:22:11.177Z,11.20
2019-03-22T13:24:41.889Z,11.20
2019-03-22T13:27:12.365Z,11.10
2019-03-22T13:29:42.849Z,10.90
2019-03-22T13:32:13.292Z,11.00
2019-03-22T13:34:43.707Z,11.10
2019-03-22T13:37:14.292Z,11.30
2019-03-22T13:39:45.131Z,11.50
2019-03-22T13:42:15.554Z,11.50
2019-03-22T13:44:46.077Z,11.60
2019-03-22T13:47:16.550Z,11.80
2019-03-22T13:49:46.978Z,11.70
2019-03-22T13:52:17.462Z,11.40
2019-03-22T13:54:48.093Z,11.80
2019-03-22T13:57:18.570Z,12.10
2019-03-22T13:59:49.011Z,11.90
2019-03-22T14:02:19.438Z,12.30
2019-03-22T14:04:49.923Z,12.40
2019-03-22T14:07:21.640Z,12.30
2019-03-22T14:09:52.464Z,12.50
2019-03-22T14:12:22.903Z,13.00
2019-03-22T14:14:53.506Z,13.00
2019-03-22T14:17:23.925Z,12.90
2019-03-22T14:19:54.401Z,12.50
2019-03-22T14:22:24.887Z,12.20
2019-03-22T14:24:55.785Z,12.90
2019-03-22T14:27:26.229Z,12.10
2019-03-22T14:29:56.879Z,11.90
2019-03-22T14:32:27.389Z,11.70
2019-03-22T14:34:57.910Z,12.00
2019-03-22T14:37:28.986Z,11.80
2019-03-22T14:39:59.511Z,11.50
2019-03-22T14:42:30.041Z,11.20
2019-03-22T14:45:00.532Z,10.90
2019-03-22T14:47:31.126Z,11.10
2019-03-22T14:50:01.922Z,11.10
2019-03-22T14:52:32.428Z,10.90
2019-03-22T14:55:03.529Z,11.10
2019-03-22T14:57:33.948Z,11.60
2019-03-22T15:00:05.530Z,12.60
2019-03-22T15:02:35.955Z,13.30
2019-03-22T15:05:07.377Z,14.00
2019-03-22T15:07:37.862Z,13.50
2019-03-22T15:10:08.951Z,13.40
2019-03-22T15:12:39.399Z,13.40
2019-03-22T15:15:28.359Z,14.30
2019-03-22T15:18:15.680Z,14.30
2019-03-22T15:21:13.876Z,13.90
2019-03-22T15:24:03.854Z,14.10
2019-03-22T15:26:53.400Z,12.30
2019-03-22T15:29:41.168Z,11.10
2019-03-22T15:32:33.233Z,10.90
2019-03-22T15:35:16.598Z,11.00
2019-03-22T15:38:04.657Z,11.00
2019-03-22T15:40:35.761Z,11.00
2019-03-22T15:43:06.457Z,10.90
2019-03-22T15:45:36.989Z,10.30
2019-03-22T15:48:07.500Z,9.90
2019-03-22T15:50:37.917Z,9.60
2019-03-22T15:53:08.399Z,9.60
2019-03-22T15:55:39.246Z,9.30
2019-03-22T15:58:09.788Z,9.10
2019-03-22T16:00:40.250Z,8.90
2019-03-22T16:03:10.747Z,8.90
2019-03-22T16:05:41.206Z,8.60
2019-03-22T16:08:11.795Z,8.60
2019-03-22T16:10:42.619Z,8.40
2019-03-22T16:13:13.069Z,8.40
2019-03-22T16:15:43.665Z,8.40
2019-03-22T16:18:14.105Z,8.40
2019-03-22T16:20:44.549Z,8.40
2019-03-22T16:23:15.034Z,8.40
2019-03-22T16:25:45.835Z,8.30
2019-03-22T16:28:16.304Z,8.30
2019-03-22T16:30:46.870Z,8.20
2019-03-22T16:33:17.311Z,8.10
2019-03-22T16:35:47.750Z,7.90
2019-03-22T16:38:18.359Z,7.70
2019-03-22T16:40:49.140Z,7.70
2019-03-22T16:43:19.568Z,7.80
2019-03-22T16:45:50.388Z,7.90
2019-03-22T16:48:20.818Z,7.80
2019-03-22T16:50:51.219Z,7.70
2019-03-22T16:53:22.113Z,7.60
2019-03-22T16:55:52.564Z,7.30
2019-03-22T16:58:22.949Z,7.20
2019-03-22T17:00:53.435Z,7.00
2019-03-22T17:03:23.897Z,6.80
2019-03-22T17:05:54.346Z,6.70
2019-03-22T17:08:24.920Z,6.50
2019-03-22T17:10:55.359Z,6.40
2019-03-22T17:13:25.755Z,6.30
2019-03-22T17:15:56.243Z,6.20
2019-03-22T17:18:26.718Z,6.10
2019-03-22T17:20:57.212Z,6.00
2019-03-22T17:23:27.698Z,5.90
2019-03-22T17:25:58.463Z,5.80
2019-03-22T17:28:28.921Z,5.80
2019-03-22T17:30:59.409Z,5.70
2019-03-22T17:33:29.874Z,5.70
2019-03-22T17:36:00.328Z,5.70
2019-03-22T17:38:31.206Z,5.60
2019-03-22T17:41:01.937Z,5.70
2019-03-22T17:43:32.764Z,5.60
2019-03-22T17:46:03.284Z,5.50
2019-03-22T17:48:33.731Z,5.60
2019-03-22T17:51:04.278Z,5.60
2019-03-22T17:53:34.806Z,5.60
2019-03-22T17:56:05.446Z,5.50
2019-03-22T17:58:35.971Z,5.50
2019-03-22T18:01:06.572Z,5.50
2019-03-22T18:03:37.096Z,5.50
2019-03-22T18:06:07.600Z,5.50
2019-03-22T18:08:38.118Z,5.50
2019-03-22T18:11:08.941Z,5.50
2019-03-22T18:13:39.389Z,5.50
2019-03-22T18:16:09.902Z,5.50
2019-03-22T18:18:40.462Z,5.50
2019-03-22T18:21:10.867Z,5.50
2019-03-22T18:23:41.500Z,5.40
2019-03-22T18:26:12.117Z,5.40
2019-03-22T18:28:42.602Z,5.40
2019-03-22T18:31:13.093Z,5.30
2019-03-22T18:33:43.538Z,5.40
2019-03-22T18:36:13.959Z,5.40
2019-03-22T18:38:44.846Z,5.40
2019-03-22T18:41:15.320Z,5.40
2019-03-22T18:43:45.726Z,5.40
2019-03-22T18:46:16.216Z,5.50
2019-03-22T18:48:46.676Z,5.40
2019-03-22T18:51:17.168Z,5.40
2019-03-22T18:53:47.635Z,5.40
2019-03-22T18:56:18.825Z,5.40
2019-03-22T18:58:49.325Z,5.40
2019-03-22T19:01:19.741Z,5.40
2019-03-22T19:03:50.204Z,5.40
2019-03-22T19:06:21.941Z,5.40
2019-03-22T19:08:52.620Z,5.40
2019-03-22T19:11:23.449Z,5.30
2019-03-22T19:13:54.433Z,5.40
2019-03-22T19:16:24.896Z,5.40
2019-03-22T19:18:55.348Z,5.40
2019-03-22T19:21:25.801Z,5.30
2019-03-22T19:23:56.249Z,5.30
2019-03-22T19:26:27.090Z,5.30
2019-03-22T19:28:57.616Z,5.30
2019-03-22T19:31:28.055Z,5.30
2019-03-22T19:33:58.447Z,5.30
2019-03-22T19:36:28.900Z,5.30
2019-03-22T19:38:59.514Z,5.30
2019-03-22T19:41:30.089Z,5.30
2019-03-22T19:44:00.591Z,5.30
2019-03-22T19:46:31.080Z,5.30
2019-03-22T19:49:01.520Z,5.30
2019-03-22T19:51:31.987Z,5.40
2019-03-22T19:54:02.443Z,5.40
2019-03-22T19:56:33.225Z,5.40
2019-03-22T19:59:03.693Z,5.40
2019-03-22T20:01:34.138Z,5.40
2019-03-22T20:04:04.724Z,5.30
2019-03-22T20:06:35.526Z,5.40
2019-03-22T20:09:10.099Z,5.40
2019-03-22T20:11:40.785Z,5.40
2019-03-22T20:14:11.388Z,5.40
2019-03-22T20:16:41.953Z,5.40
2019-03-22T20:19:12.469Z,5.40
2019-03-22T20:21:44.407Z,5.40
2019-03-22T20:24:14.925Z,5.40
2019-03-22T20:26:45.612Z,5.50
2019-03-22T20:29:16.098Z,5.50
2019-03-22T20:31:46.748Z,5.50
2019-03-22T20:34:17.170Z,5.60
2019-03-22T20:36:47.650Z,5.60
2019-03-22T20:39:18.505Z,5.70
2019-03-22T20:41:49.083Z,5.70
2019-03-22T20:44:19.554Z,5.70
2019-03-22T20:46:50.048Z,5.80
2019-03-22T20:49:20.690Z,5.70
2019-03-22T20:51:51.252Z,5.70
2019-03-22T20:54:21.850Z,5.70
2019-03-22T20:56:52.277Z,5.80
2019-03-22T20:59:22.712Z,5.80
2019-03-22T21:01:53.216Z,5.90
2019-03-22T21:04:23.677Z,5.90
2019-03-22T21:06:54.200Z,5.80
2019-03-22T21:09:25.015Z,5.80
2019-03-22T21:11:55.453Z,5.80
2019-03-22T21:14:25.851Z,5.80
2019-03-22T21:16:56.330Z,5.80
2019-03-22T21:19:26.776Z,5.80
2019-03-22T21:21:57.244Z,5.80
2019-03-22T21:24:27.792Z,5.70
2019-03-22T21:26:58.197Z,5.60
2019-03-22T21:29:28.654Z,5.60
2019-03-22T21:31:59.245Z,5.60
2019-03-22T21:34:29.661Z,5.60
2019-03-22T21:37:00.048Z,5.60
2019-03-22T21:39:30.802Z,5.60
2019-03-22T21:42:01.242Z,5.60
2019-03-22T21:44:31.664Z,5.60
2019-03-22T21:47:02.169Z,5.50
2019-03-22T21:49:32.600Z,5.50
2019-03-22T21:52:02.996Z,5.50
2019-03-22T21:54:33.536Z,5.50
2019-03-22T21:57:04.136Z,5.50
2019-03-22T21:59:34.805Z,5.50
2019-03-22T22:02:05.486Z,5.50
2019-03-22T22:04:35.940Z,5.40
2019-03-22T22:07:06.504Z,5.50
2019-03-22T22:09:37.003Z,5.50
2019-03-22T22:12:07.721Z,5.60
2019-03-22T22:14:41.055Z,5.50
2019-03-22T22:17:10.365Z,5.50
2019-03-22T22:19:40.771Z,5.60
2019-03-22T22:22:11.237Z,5.50
2019-03-22T22:24:41.717Z,5.50
2019-03-22T22:27:14.095Z,5.40
2019-03-22T22:29:44.706Z,5.40
2019-03-22T22:32:15.164Z,5.40
2019-03-22T22:34:45.656Z,5.40
2019-03-22T22:37:16.143Z,5.40
2019-03-22T22:39:46.797Z,5.50
2019-03-22T22:42:17.559Z,5.50
2019-03-22T22:44:48.082Z,5.50
2019-03-22T22:47:18.538Z,5.50
2019-03-22T22:49:49.045Z,5.50
2019-03-22T22:52:19.522Z,5.50
2019-03-22T22:54:49.956Z,5.50
2019-03-22T22:57:20.819Z,5.50
2019-03-22T22:59:51.289Z,5.60
2019-03-22T23:02:21.745Z,5.60
2019-03-22T23:04:52.194Z,5.50
2019-03-22T23:07:22.780Z,5.50
2019-03-22T23:09:53.233Z,5.50
2019-03-22T23:12:24.100Z,5.50
2019-03-22T23:14:54.583Z,5.50
2019-03-22T23:17:25.018Z,5.50
2019-03-22T23:19:55.431Z,5.50
2019-03-22T23:22:25.932Z,5.50
2019-03-22T23:24:56.384Z,5.50
2019-03-22T23:27:26.903Z,5.50
2019-03-22T23:29:57.430Z,5.40
2019-03-22T23:32:27.876Z,5.50
2019-03-22T23:34:59.273Z,5.50
2019-03-22T23:37:30.207Z,5.50
2019-03-22T23:40:00.806Z,5.50
2019-03-22T23:42:31.624Z,5.50
2019-03-22T23:45:02.128Z,5.40
2019-03-22T23:47:32.586Z,5.40
2019-03-22T23:50:03.009Z,5.40
2019-03-22T23:52:33.491Z,5.40
2019-03-22T23:55:04.194Z,5.40
2019-03-22T23:57:35.037Z,5.50
